sensor_id;sensor_type;location;lat;lon;timestamp;temperature;humidity
30288;DHT22;17103;48.316;11.558;2022-09-17T00:01:00;16.50;54.80
30288;DHT22;17103;48.316;11.558;2022-09-17T00:03:26;16.60;54.20
30288;DHT22;17103;48.316;11.558;2022-09-17T00:06:01;16.60;54.10
30288;DHT22;17103;48.316;11.558;2022-09-17T00:08:28;16.50;53.60
30288;DHT22;17103;48.316;11.558;2022-09-17T00:10:54;16.40;53.50
30288;DHT22;17103;48.316;11.558;2022-09-17T00:13:19;16.30;53.40
30288;DHT22;17103;48.316;11.558;2022-09-17T00:15:45;16.30;53.60
30288;DHT22;17103;48.316;11.558;2022-09-17T00:18:12;16.10;53.20
30288;DHT22;17103;48.316;11.558;2022-09-17T00:20:39;16.10;53.50
30288;DHT22;17103;48.316;11.558;2022-09-17T00:23:05;15.90;53.80
30288;DHT22;17103;48.316;11.558;2022-09-17T00:25:31;15.90;54.00
30288;DHT22;17103;48.316;11.558;2022-09-17T00:27:57;15.80;54.10
30288;DHT22;17103;48.316;11.558;2022-09-17T00:30:22;15.70;54.30
30288;DHT22;17103;48.316;11.558;2022-09-17T00:32:48;15.70;54.40
30288;DHT22;17103;48.316;11.558;2022-09-17T00:35:13;16.00;54.90
30288;DHT22;17103;48.316;11.558;2022-09-17T00:37:39;15.70;54.40
30288;DHT22;17103;48.316;11.558;2022-09-17T00:40:05;15.70;54.50
30288;DHT22;17103;48.316;11.558;2022-09-17T00:42:31;15.70;54.80
30288;DHT22;17103;48.316;11.558;2022-09-17T00:44:56;15.70;54.60
30288;DHT22;17103;48.316;11.558;2022-09-17T00:47:29;15.70;54.40
30288;DHT22;17103;48.316;11.558;2022-09-17T00:52:35;15.60;53.80
30288;DHT22;17103;48.316;11.558;2022-09-17T00:57:35;15.60;53.50
30288;DHT22;17103;48.316;11.558;2022-09-17T01:00:04;15.70;53.40
30288;DHT22;17103;48.316;11.558;2022-09-17T01:02:30;15.60;53.40
30288;DHT22;17103;48.316;11.558;2022-09-17T01:04:55;15.50;53.60
30288;DHT22;17103;48.316;11.558;2022-09-17T01:07:47;15.50;53.60
30288;DHT22;17103;48.316;11.558;2022-09-17T01:15:56;15.50;53.80
30288;DHT22;17103;48.316;11.558;2022-09-17T01:18:58;15.50;53.80
30288;DHT22;17103;48.316;11.558;2022-09-17T01:21:38;15.50;53.80
30288;DHT22;17103;48.316;11.558;2022-09-17T01:29:42;15.50;53.60
30288;DHT22;17103;48.316;11.558;2022-09-17T01:32:17;15.40;53.50
30288;DHT22;17103;48.316;11.558;2022-09-17T01:37:51;15.40;53.50
30288;DHT22;17103;48.316;11.558;2022-09-17T01:40:30;15.40;53.60
30288;DHT22;17103;48.316;11.558;2022-09-17T01:45:54;15.30;53.70
30288;DHT22;17103;48.316;11.558;2022-09-17T01:48:26;15.40;53.90
30288;DHT22;17103;48.316;11.558;2022-09-17T01:50:59;15.40;54.00
30288;DHT22;17103;48.316;11.558;2022-09-17T01:53:36;15.40;53.90
30288;DHT22;17103;48.316;11.558;2022-09-17T01:56:03;15.40;54.10
30288;DHT22;17103;48.316;11.558;2022-09-17T01:58:38;15.40;54.10
30288;DHT22;17103;48.316;11.558;2022-09-17T02:01:06;15.40;53.80
30288;DHT22;17103;48.316;11.558;2022-09-17T02:03:40;15.40;53.60
30288;DHT22;17103;48.316;11.558;2022-09-17T02:06:13;15.40;53.60
30288;DHT22;17103;48.316;11.558;2022-09-17T02:11:11;15.40;54.00
30288;DHT22;17103;48.316;11.558;2022-09-17T02:16:32;15.30;53.40
30288;DHT22;17103;48.316;11.558;2022-09-17T02:24:23;15.10;53.70
30288;DHT22;17103;48.316;11.558;2022-09-17T02:29:42;14.90;53.40
30288;DHT22;17103;48.316;11.558;2022-09-17T02:32:09;14.90;53.60
30288;DHT22;17103;48.316;11.558;2022-09-17T02:34:38;14.80;53.50
30288;DHT22;17103;48.316;11.558;2022-09-17T02:37:05;14.60;53.70
30288;DHT22;17103;48.316;11.558;2022-09-17T02:39:31;14.50;53.90
30288;DHT22;17103;48.316;11.558;2022-09-17T02:42:19;14.50;54.20
30288;DHT22;17103;48.316;11.558;2022-09-17T02:47:33;14.30;54.80
30288;DHT22;17103;48.316;11.558;2022-09-17T02:50:34;14.20;54.90
30288;DHT22;17103;48.316;11.558;2022-09-17T02:59:00;14.10;54.70
30288;DHT22;17103;48.316;11.558;2022-09-17T03:01:43;14.10;54.70
30288;DHT22;17103;48.316;11.558;2022-09-17T03:04:12;14.10;54.70
30288;DHT22;17103;48.316;11.558;2022-09-17T03:06:41;14.00;54.60
30288;DHT22;17103;48.316;11.558;2022-09-17T03:09:07;14.00;54.60
30288;DHT22;17103;48.316;11.558;2022-09-17T03:11:33;14.00;54.50
30288;DHT22;17103;48.316;11.558;2022-09-17T03:13:59;14.00;54.70
30288;DHT22;17103;48.316;11.558;2022-09-17T03:16:25;13.90;54.90
30288;DHT22;17103;48.316;11.558;2022-09-17T03:18:51;13.90;55.00
30288;DHT22;17103;48.316;11.558;2022-09-17T03:21:16;13.90;55.10
30288;DHT22;17103;48.316;11.558;2022-09-17T03:23:42;13.90;55.20
30288;DHT22;17103;48.316;11.558;2022-09-17T03:26:07;13.90;54.90
30288;DHT22;17103;48.316;11.558;2022-09-17T03:28:33;13.90;55.20
30288;DHT22;17103;48.316;11.558;2022-09-17T03:30:59;13.90;55.10
30288;DHT22;17103;48.316;11.558;2022-09-17T03:33:25;13.90;54.80
30288;DHT22;17103;48.316;11.558;2022-09-17T03:35:51;13.90;54.70
30288;DHT22;17103;48.316;11.558;2022-09-17T03:38:17;13.90;55.50
30288;DHT22;17103;48.316;11.558;2022-09-17T03:40:42;13.90;54.90
30288;DHT22;17103;48.316;11.558;2022-09-17T03:43:08;13.90;54.50
30288;DHT22;17103;48.316;11.558;2022-09-17T03:45:34;13.90;54.50
30288;DHT22;17103;48.316;11.558;2022-09-17T03:48:00;13.90;54.10
30288;DHT22;17103;48.316;11.558;2022-09-17T03:50:26;13.90;53.80
30288;DHT22;17103;48.316;11.558;2022-09-17T03:52:51;13.90;53.60
30288;DHT22;17103;48.316;11.558;2022-09-17T03:55:17;13.80;53.50
30288;DHT22;17103;48.316;11.558;2022-09-17T03:57:42;13.90;53.60
30288;DHT22;17103;48.316;11.558;2022-09-17T04:00:09;13.70;53.40
30288;DHT22;17103;48.316;11.558;2022-09-17T04:02:36;13.70;53.50
30288;DHT22;17103;48.316;11.558;2022-09-17T04:05:02;13.60;53.50
30288;DHT22;17103;48.316;11.558;2022-09-17T04:07:28;13.50;53.50
30288;DHT22;17103;48.316;11.558;2022-09-17T04:09:53;13.40;53.70
30288;DHT22;17103;48.316;11.558;2022-09-17T04:12:19;13.30;53.90
30288;DHT22;17103;48.316;11.558;2022-09-17T04:14:48;13.30;54.00
30288;DHT22;17103;48.316;11.558;2022-09-17T04:17:14;13.20;54.10
30288;DHT22;17103;48.316;11.558;2022-09-17T04:19:43;13.10;54.20
30288;DHT22;17103;48.316;11.558;2022-09-17T04:22:08;13.50;54.70
30288;DHT22;17103;48.316;11.558;2022-09-17T04:24:34;13.00;54.50
30288;DHT22;17103;48.316;11.558;2022-09-17T04:27:00;13.20;54.80
30288;DHT22;17103;48.316;11.558;2022-09-17T04:29:26;12.90;54.70
30288;DHT22;17103;48.316;11.558;2022-09-17T04:31:51;12.80;54.90
30288;DHT22;17103;48.316;11.558;2022-09-17T04:34:17;12.80;55.00
30288;DHT22;17103;48.316;11.558;2022-09-17T04:36:42;12.70;55.00
30288;DHT22;17103;48.316;11.558;2022-09-17T04:39:08;12.70;55.20
30288;DHT22;17103;48.316;11.558;2022-09-17T04:41:34;12.60;55.20
30288;DHT22;17103;48.316;11.558;2022-09-17T04:44:00;12.60;55.40
30288;DHT22;17103;48.316;11.558;2022-09-17T04:46:25;12.50;55.50
30288;DHT22;17103;48.316;11.558;2022-09-17T04:48:51;12.50;55.60
30288;DHT22;17103;48.316;11.558;2022-09-17T04:51:16;12.40;55.80
30288;DHT22;17103;48.316;11.558;2022-09-17T04:53:42;12.30;55.90
30288;DHT22;17103;48.316;11.558;2022-09-17T04:56:08;12.20;56.30
30288;DHT22;17103;48.316;11.558;2022-09-17T04:58:33;12.20;56.50
30288;DHT22;17103;48.316;11.558;2022-09-17T05:00:59;12.10;56.60
30288;DHT22;17103;48.316;11.558;2022-09-17T05:03:25;12.10;56.90
30288;DHT22;17103;48.316;11.558;2022-09-17T05:05:51;12.00;57.60
30288;DHT22;17103;48.316;11.558;2022-09-17T05:08:18;12.00;57.30
30288;DHT22;17103;48.316;11.558;2022-09-17T05:10:43;11.90;57.30
30288;DHT22;17103;48.316;11.558;2022-09-17T05:13:09;11.90;57.60
30288;DHT22;17103;48.316;11.558;2022-09-17T05:15:35;11.90;57.80
30288;DHT22;17103;48.316;11.558;2022-09-17T05:18:00;11.90;58.00
30288;DHT22;17103;48.316;11.558;2022-09-17T05:20:26;11.90;58.00
30288;DHT22;17103;48.316;11.558;2022-09-17T05:22:52;11.90;58.40
30288;DHT22;17103;48.316;11.558;2022-09-17T05:25:20;11.90;58.50
30288;DHT22;17103;48.316;11.558;2022-09-17T05:27:50;12.00;58.60
30288;DHT22;17103;48.316;11.558;2022-09-17T05:30:16;12.00;58.30
30288;DHT22;17103;48.316;11.558;2022-09-17T05:32:42;12.10;58.30
30288;DHT22;17103;48.316;11.558;2022-09-17T05:35:09;12.10;58.30
30288;DHT22;17103;48.316;11.558;2022-09-17T05:37:35;12.20;58.40
30288;DHT22;17103;48.316;11.558;2022-09-17T05:40:05;12.20;58.40
30288;DHT22;17103;48.316;11.558;2022-09-17T05:42:32;12.20;58.40
30288;DHT22;17103;48.316;11.558;2022-09-17T05:44:58;12.20;58.30
30288;DHT22;17103;48.316;11.558;2022-09-17T05:47:24;12.20;58.30
30288;DHT22;17103;48.316;11.558;2022-09-17T05:49:49;12.30;58.60
30288;DHT22;17103;48.316;11.558;2022-09-17T05:52:15;12.30;58.60
30288;DHT22;17103;48.316;11.558;2022-09-17T05:54:40;12.30;58.60
30288;DHT22;17103;48.316;11.558;2022-09-17T05:57:06;12.30;58.80
30288;DHT22;17103;48.316;11.558;2022-09-17T05:59:32;12.30;58.70
30288;DHT22;17103;48.316;11.558;2022-09-17T06:01:57;12.30;58.80
30288;DHT22;17103;48.316;11.558;2022-09-17T06:04:23;12.30;58.70
30288;DHT22;17103;48.316;11.558;2022-09-17T06:06:49;12.30;58.70
30288;DHT22;17103;48.316;11.558;2022-09-17T06:09:14;12.30;58.70
30288;DHT22;17103;48.316;11.558;2022-09-17T06:11:40;12.40;58.60
30288;DHT22;17103;48.316;11.558;2022-09-17T06:14:07;12.30;58.70
30288;DHT22;17103;48.316;11.558;2022-09-17T06:16:32;12.30;58.90
30288;DHT22;17103;48.316;11.558;2022-09-17T06:18:58;12.30;59.10
30288;DHT22;17103;48.316;11.558;2022-09-17T06:21:26;12.30;59.10
30288;DHT22;17103;48.316;11.558;2022-09-17T06:23:51;12.30;59.40
30288;DHT22;17103;48.316;11.558;2022-09-17T06:26:17;12.20;59.60
30288;DHT22;17103;48.316;11.558;2022-09-17T06:28:43;12.20;59.80
30288;DHT22;17103;48.316;11.558;2022-09-17T06:31:10;12.20;60.00
30288;DHT22;17103;48.316;11.558;2022-09-17T06:33:36;12.10;60.40
30288;DHT22;17103;48.316;11.558;2022-09-17T06:36:04;12.10;60.60
30288;DHT22;17103;48.316;11.558;2022-09-17T06:38:33;12.10;60.50
30288;DHT22;17103;48.316;11.558;2022-09-17T06:40:59;12.10;60.50
30288;DHT22;17103;48.316;11.558;2022-09-17T06:43:27;12.00;60.30
30288;DHT22;17103;48.316;11.558;2022-09-17T06:45:57;12.10;60.50
30288;DHT22;17103;48.316;11.558;2022-09-17T06:48:24;12.00;60.60
30288;DHT22;17103;48.316;11.558;2022-09-17T06:50:51;12.00;61.00
30288;DHT22;17103;48.316;11.558;2022-09-17T06:53:22;12.00;60.90
30288;DHT22;17103;48.316;11.558;2022-09-17T06:55:48;12.00;61.00
30288;DHT22;17103;48.316;11.558;2022-09-17T06:58:14;12.10;61.10
30288;DHT22;17103;48.316;11.558;2022-09-17T07:00:40;12.10;61.00
30288;DHT22;17103;48.316;11.558;2022-09-17T07:03:05;12.10;61.10
30288;DHT22;17103;48.316;11.558;2022-09-17T07:05:31;12.10;60.90
30288;DHT22;17103;48.316;11.558;2022-09-17T07:08:00;12.10;61.10
30288;DHT22;17103;48.316;11.558;2022-09-17T07:10:26;12.10;61.10
30288;DHT22;17103;48.316;11.558;2022-09-17T07:12:52;12.10;61.40
30288;DHT22;17103;48.316;11.558;2022-09-17T07:15:19;12.10;61.80
30288;DHT22;17103;48.316;11.558;2022-09-17T07:17:44;12.10;62.10
30288;DHT22;17103;48.316;11.558;2022-09-17T07:20:11;12.10;62.50
30288;DHT22;17103;48.316;11.558;2022-09-17T07:22:37;12.10;63.00
30288;DHT22;17103;48.316;11.558;2022-09-17T07:25:03;12.10;61.90
30288;DHT22;17103;48.316;11.558;2022-09-17T07:27:29;12.10;62.10
30288;DHT22;17103;48.316;11.558;2022-09-17T07:29:55;12.10;62.70
30288;DHT22;17103;48.316;11.558;2022-09-17T07:32:21;12.20;62.60
30288;DHT22;17103;48.316;11.558;2022-09-17T07:34:47;12.30;62.80
30288;DHT22;17103;48.316;11.558;2022-09-17T07:37:17;12.40;61.80
30288;DHT22;17103;48.316;11.558;2022-09-17T07:39:43;12.40;61.30
30288;DHT22;17103;48.316;11.558;2022-09-17T07:42:09;12.50;61.50
30288;DHT22;17103;48.316;11.558;2022-09-17T07:44:35;12.60;61.30
30288;DHT22;17103;48.316;11.558;2022-09-17T07:47:01;12.70;59.50
30288;DHT22;17103;48.316;11.558;2022-09-17T07:49:27;12.70;59.10
30288;DHT22;17103;48.316;11.558;2022-09-17T07:51:53;12.80;57.50
30288;DHT22;17103;48.316;11.558;2022-09-17T07:54:19;12.80;55.90
30288;DHT22;17103;48.316;11.558;2022-09-17T07:56:45;12.80;56.70
30288;DHT22;17103;48.316;11.558;2022-09-17T07:59:11;12.80;56.10
30288;DHT22;17103;48.316;11.558;2022-09-17T08:01:38;12.70;55.80
30288;DHT22;17103;48.316;11.558;2022-09-17T08:04:04;12.60;55.70
30288;DHT22;17103;48.316;11.558;2022-09-17T08:06:30;12.70;56.70
30288;DHT22;17103;48.316;11.558;2022-09-17T08:08:57;12.70;56.90
30288;DHT22;17103;48.316;11.558;2022-09-17T08:11:27;12.70;56.70
30288;DHT22;17103;48.316;11.558;2022-09-17T08:13:53;12.80;57.00
30288;DHT22;17103;48.316;11.558;2022-09-17T08:16:22;12.90;57.70
30288;DHT22;17103;48.316;11.558;2022-09-17T08:18:52;12.90;56.60
30288;DHT22;17103;48.316;11.558;2022-09-17T08:21:19;13.00;56.20
30288;DHT22;17103;48.316;11.558;2022-09-17T08:23:45;13.10;56.50
30288;DHT22;17103;48.316;11.558;2022-09-17T08:26:16;13.20;56.70
30288;DHT22;17103;48.316;11.558;2022-09-17T08:28:53;13.30;54.40
30288;DHT22;17103;48.316;11.558;2022-09-17T08:31:20;13.30;53.80
30288;DHT22;17103;48.316;11.558;2022-09-17T08:33:46;13.30;53.70
30288;DHT22;17103;48.316;11.558;2022-09-17T08:36:13;13.30;53.90
30288;DHT22;17103;48.316;11.558;2022-09-17T08:38:39;13.30;53.50
30288;DHT22;17103;48.316;11.558;2022-09-17T08:43:35;13.40;53.10
30288;DHT22;17103;48.316;11.558;2022-09-17T08:46:03;13.40;52.40
30288;DHT22;17103;48.316;11.558;2022-09-17T08:48:36;13.40;52.00
30288;DHT22;17103;48.316;11.558;2022-09-17T08:51:27;13.40;52.10
30288;DHT22;17103;48.316;11.558;2022-09-17T08:54:12;13.50;52.10
30288;DHT22;17103;48.316;11.558;2022-09-17T08:56:44;13.70;51.70
30288;DHT22;17103;48.316;11.558;2022-09-17T09:02:27;13.40;51.40
30288;DHT22;17103;48.316;11.558;2022-09-17T09:05:22;13.30;51.20
30288;DHT22;17103;48.316;11.558;2022-09-17T09:08:10;13.30;52.00
30288;DHT22;17103;48.316;11.558;2022-09-17T09:10:54;13.30;52.70
30288;DHT22;17103;48.316;11.558;2022-09-17T09:13:22;13.30;53.10
30288;DHT22;17103;48.316;11.558;2022-09-17T09:15:58;13.40;53.10
30288;DHT22;17103;48.316;11.558;2022-09-17T09:18:29;13.30;53.00
30288;DHT22;17103;48.316;11.558;2022-09-17T09:26:46;13.40;54.30
30288;DHT22;17103;48.316;11.558;2022-09-17T09:29:41;13.40;54.50
30288;DHT22;17103;48.316;11.558;2022-09-17T09:35:18;13.70;54.70
30288;DHT22;17103;48.316;11.558;2022-09-17T09:43:21;13.30;54.60
30288;DHT22;17103;48.316;11.558;2022-09-17T09:54:25;13.00;54.70
30288;DHT22;17103;48.316;11.558;2022-09-17T09:59:28;13.00;55.40
30288;DHT22;17103;48.316;11.558;2022-09-17T10:01:54;13.00;55.10
30288;DHT22;17103;48.316;11.558;2022-09-17T10:04:25;12.90;55.00
30288;DHT22;17103;48.316;11.558;2022-09-17T10:07:02;12.90;55.40
30288;DHT22;17103;48.316;11.558;2022-09-17T10:09:29;13.00;55.50
30288;DHT22;17103;48.316;11.558;2022-09-17T10:14:39;12.90;55.80
30288;DHT22;17103;48.316;11.558;2022-09-17T10:19:41;13.00;56.60
30288;DHT22;17103;48.316;11.558;2022-09-17T10:22:31;13.00;56.70
30288;DHT22;17103;48.316;11.558;2022-09-17T10:24:59;13.00;56.70
30288;DHT22;17103;48.316;11.558;2022-09-17T10:27:31;13.00;56.80
30288;DHT22;17103;48.316;11.558;2022-09-17T10:32:34;13.10;57.20
30288;DHT22;17103;48.316;11.558;2022-09-17T10:37:46;13.00;57.10
30288;DHT22;17103;48.316;11.558;2022-09-17T10:45:38;13.10;57.50
30288;DHT22;17103;48.316;11.558;2022-09-17T10:48:15;13.10;57.20
30288;DHT22;17103;48.316;11.558;2022-09-17T10:50:47;13.10;57.10
30288;DHT22;17103;48.316;11.558;2022-09-17T10:53:16;13.10;57.50
30288;DHT22;17103;48.316;11.558;2022-09-17T10:56:00;13.10;57.70
30288;DHT22;17103;48.316;11.558;2022-09-17T11:01:46;13.10;57.50
30288;DHT22;17103;48.316;11.558;2022-09-17T11:04:37;13.00;58.00
30288;DHT22;17103;48.316;11.558;2022-09-17T11:07:31;13.00;58.50
30288;DHT22;17103;48.316;11.558;2022-09-17T11:13:37;12.90;57.90
30288;DHT22;17103;48.316;11.558;2022-09-17T11:24:16;13.00;58.10
30288;DHT22;17103;48.316;11.558;2022-09-17T11:34:50;13.20;56.90
30288;DHT22;17103;48.316;11.558;2022-09-17T11:37:33;13.30;57.60
30288;DHT22;17103;48.316;11.558;2022-09-17T11:40:14;13.20;57.80
30288;DHT22;17103;48.316;11.558;2022-09-17T11:42:49;13.40;58.30
30288;DHT22;17103;48.316;11.558;2022-09-17T11:45:30;13.50;58.90
30288;DHT22;17103;48.316;11.558;2022-09-17T11:53:29;13.80;55.70
30288;DHT22;17103;48.316;11.558;2022-09-17T11:56:24;13.90;55.20
30288;DHT22;17103;48.316;11.558;2022-09-17T11:59:03;13.90;54.70
30288;DHT22;17103;48.316;11.558;2022-09-17T12:01:44;14.00;54.00
30288;DHT22;17103;48.316;11.558;2022-09-17T12:04:36;14.00;53.40
30288;DHT22;17103;48.316;11.558;2022-09-17T12:07:26;14.00;53.20
30288;DHT22;17103;48.316;11.558;2022-09-17T12:10:02;14.00;53.80
30288;DHT22;17103;48.316;11.558;2022-09-17T12:12:30;14.00;54.20
30288;DHT22;17103;48.316;11.558;2022-09-17T12:15:05;14.10;54.80
30288;DHT22;17103;48.316;11.558;2022-09-17T12:17:52;14.20;54.60
30288;DHT22;17103;48.316;11.558;2022-09-17T12:20:27;14.30;53.40
30288;DHT22;17103;48.316;11.558;2022-09-17T12:22:56;14.40;52.40
30288;DHT22;17103;48.316;11.558;2022-09-17T12:25:23;14.40;53.10
30288;DHT22;17103;48.316;11.558;2022-09-17T12:27:59;14.40;53.50
30288;DHT22;17103;48.316;11.558;2022-09-17T12:30:52;14.50;51.60
30288;DHT22;17103;48.316;11.558;2022-09-17T12:36:35;14.60;50.90
30288;DHT22;17103;48.316;11.558;2022-09-17T12:42:05;14.60;50.40
30288;DHT22;17103;48.316;11.558;2022-09-17T12:52:49;14.90;49.70
30288;DHT22;17103;48.316;11.558;2022-09-17T12:55:34;15.00;50.00
30288;DHT22;17103;48.316;11.558;2022-09-17T12:58:17;15.10;49.20
30288;DHT22;17103;48.316;11.558;2022-09-17T13:00:52;15.20;48.00
30288;DHT22;17103;48.316;11.558;2022-09-17T13:03:43;15.30;49.00
30288;DHT22;17103;48.316;11.558;2022-09-17T13:15:05;15.40;45.00
30288;DHT22;17103;48.316;11.558;2022-09-17T13:17:57;15.40;46.30
30288;DHT22;17103;48.316;11.558;2022-09-17T13:20:37;15.40;46.70
30288;DHT22;17103;48.316;11.558;2022-09-17T13:23:05;15.50;47.00
30288;DHT22;17103;48.316;11.558;2022-09-17T13:25:31;15.60;46.20
30288;DHT22;17103;48.316;11.558;2022-09-17T13:28:10;15.60;44.70
30288;DHT22;17103;48.316;11.558;2022-09-17T13:30:57;15.70;45.00
30288;DHT22;17103;48.316;11.558;2022-09-17T13:33:57;15.80;45.50
30288;DHT22;17103;48.316;11.558;2022-09-17T13:36:49;15.90;45.50
30288;DHT22;17103;48.316;11.558;2022-09-17T13:39:32;16.00;44.70
30288;DHT22;17103;48.316;11.558;2022-09-17T13:42:07;16.20;46.20
30288;DHT22;17103;48.316;11.558;2022-09-17T13:44:40;16.30;44.90
30288;DHT22;17103;48.316;11.558;2022-09-17T13:47:25;16.40;45.40
30288;DHT22;17103;48.316;11.558;2022-09-17T13:49:58;16.50;44.40
30288;DHT22;17103;48.316;11.558;2022-09-17T13:52:44;16.60;42.50
30288;DHT22;17103;48.316;11.558;2022-09-17T13:58:06;16.70;43.10
30288;DHT22;17103;48.316;11.558;2022-09-17T14:00:57;16.80;44.30
30288;DHT22;17103;48.316;11.558;2022-09-17T14:13:55;16.80;43.20
30288;DHT22;17103;48.316;11.558;2022-09-17T14:21:57;16.80;43.10
30288;DHT22;17103;48.316;11.558;2022-09-17T14:38:23;16.10;45.50
30288;DHT22;17103;48.316;11.558;2022-09-17T14:40:59;15.80;45.90
30288;DHT22;17103;48.316;11.558;2022-09-17T14:43:51;15.60;46.80
30288;DHT22;17103;48.316;11.558;2022-09-17T14:46:22;15.30;47.60
30288;DHT22;17103;48.316;11.558;2022-09-17T14:48:48;15.20;48.10
30288;DHT22;17103;48.316;11.558;2022-09-17T14:53:48;15.00;48.50
30288;DHT22;17103;48.316;11.558;2022-09-17T14:56:17;14.90;48.70
30288;DHT22;17103;48.316;11.558;2022-09-17T14:58:51;14.80;49.10
30288;DHT22;17103;48.316;11.558;2022-09-17T15:01:23;14.80;49.40
30288;DHT22;17103;48.316;11.558;2022-09-17T15:04:06;14.70;49.50
30288;DHT22;17103;48.316;11.558;2022-09-17T15:06:32;14.70;49.80
30288;DHT22;17103;48.316;11.558;2022-09-17T15:08:58;14.60;49.90
30288;DHT22;17103;48.316;11.558;2022-09-17T15:11:26;14.60;49.70
30288;DHT22;17103;48.316;11.558;2022-09-17T15:13:53;14.60;49.10
30288;DHT22;17103;48.316;11.558;2022-09-17T15:21:38;14.50;47.30
30288;DHT22;17103;48.316;11.558;2022-09-17T15:26:55;14.40;46.80
30288;DHT22;17103;48.316;11.558;2022-09-17T15:29:26;14.30;46.90
30288;DHT22;17103;48.316;11.558;2022-09-17T15:31:53;14.20;46.20
30288;DHT22;17103;48.316;11.558;2022-09-17T15:34:20;14.20;46.40
30288;DHT22;17103;48.316;11.558;2022-09-17T15:37:15;14.20;46.70
30288;DHT22;17103;48.316;11.558;2022-09-17T15:39:42;14.10;46.20
30288;DHT22;17103;48.316;11.558;2022-09-17T15:42:27;14.10;46.20
30288;DHT22;17103;48.316;11.558;2022-09-17T15:45:25;14.00;46.60
30288;DHT22;17103;48.316;11.558;2022-09-17T15:47:54;14.00;46.90
30288;DHT22;17103;48.316;11.558;2022-09-17T15:55:42;14.10;47.70
30288;DHT22;17103;48.316;11.558;2022-09-17T16:08:48;13.90;48.00
30288;DHT22;17103;48.316;11.558;2022-09-17T16:11:19;13.80;48.10
30288;DHT22;17103;48.316;11.558;2022-09-17T16:13:45;13.80;48.40
30288;DHT22;17103;48.316;11.558;2022-09-17T16:16:20;13.80;48.70
30288;DHT22;17103;48.316;11.558;2022-09-17T16:18:47;13.70;49.30
30288;DHT22;17103;48.316;11.558;2022-09-17T16:21:13;13.80;49.50
30288;DHT22;17103;48.316;11.558;2022-09-17T16:23:39;13.80;49.70
30288;DHT22;17103;48.316;11.558;2022-09-17T16:26:05;13.90;49.30
30288;DHT22;17103;48.316;11.558;2022-09-17T16:28:34;14.00;49.70
30288;DHT22;17103;48.316;11.558;2022-09-17T16:31:00;14.10;49.50
30288;DHT22;17103;48.316;11.558;2022-09-17T16:33:25;14.20;48.80
30288;DHT22;17103;48.316;11.558;2022-09-17T16:35:55;14.20;47.90
30288;DHT22;17103;48.316;11.558;2022-09-17T16:38:21;14.30;47.30
30288;DHT22;17103;48.316;11.558;2022-09-17T16:40:47;14.30;47.40
30288;DHT22;17103;48.316;11.558;2022-09-17T16:43:13;14.30;46.80
30288;DHT22;17103;48.316;11.558;2022-09-17T16:45:38;14.20;46.30
30288;DHT22;17103;48.316;11.558;2022-09-17T16:48:04;14.60;46.40
30288;DHT22;17103;48.316;11.558;2022-09-17T16:50:31;14.10;46.40
30288;DHT22;17103;48.316;11.558;2022-09-17T16:52:58;14.10;46.50
30288;DHT22;17103;48.316;11.558;2022-09-17T16:55:24;14.40;47.10
30288;DHT22;17103;48.316;11.558;2022-09-17T16:57:49;14.10;47.20
30288;DHT22;17103;48.316;11.558;2022-09-17T17:00:18;14.00;47.20
30288;DHT22;17103;48.316;11.558;2022-09-17T17:02:51;14.00;47.40
30288;DHT22;17103;48.316;11.558;2022-09-17T17:05:17;13.90;47.50
30288;DHT22;17103;48.316;11.558;2022-09-17T17:07:43;13.90;47.60
30288;DHT22;17103;48.316;11.558;2022-09-17T17:10:09;13.80;47.90
30288;DHT22;17103;48.316;11.558;2022-09-17T17:12:37;13.70;48.00
30288;DHT22;17103;48.316;11.558;2022-09-17T17:15:03;13.70;48.10
30288;DHT22;17103;48.316;11.558;2022-09-17T17:17:31;13.60;48.20
30288;DHT22;17103;48.316;11.558;2022-09-17T17:19:58;13.60;48.30
30288;DHT22;17103;48.316;11.558;2022-09-17T17:22:23;13.60;48.50
30288;DHT22;17103;48.316;11.558;2022-09-17T17:24:49;13.50;48.60
30288;DHT22;17103;48.316;11.558;2022-09-17T17:27:15;13.50;48.70
30288;DHT22;17103;48.316;11.558;2022-09-17T17:29:40;13.50;48.80
30288;DHT22;17103;48.316;11.558;2022-09-17T17:32:06;13.40;49.20
30288;DHT22;17103;48.316;11.558;2022-09-17T17:34:31;13.40;49.60
30288;DHT22;17103;48.316;11.558;2022-09-17T17:36:57;13.30;49.50
30288;DHT22;17103;48.316;11.558;2022-09-17T17:39:23;13.30;49.60
30288;DHT22;17103;48.316;11.558;2022-09-17T17:41:49;13.30;50.00
30288;DHT22;17103;48.316;11.558;2022-09-17T17:44:15;13.20;49.90
30288;DHT22;17103;48.316;11.558;2022-09-17T17:46:41;13.10;50.40
30288;DHT22;17103;48.316;11.558;2022-09-17T17:49:07;13.10;50.30
30288;DHT22;17103;48.316;11.558;2022-09-17T17:51:33;13.10;50.30
30288;DHT22;17103;48.316;11.558;2022-09-17T17:53:59;13.00;50.40
30288;DHT22;17103;48.316;11.558;2022-09-17T17:56:24;13.00;50.60
30288;DHT22;17103;48.316;11.558;2022-09-17T17:58:55;12.90;50.40
30288;DHT22;17103;48.316;11.558;2022-09-17T18:01:24;12.90;50.70
30288;DHT22;17103;48.316;11.558;2022-09-17T18:04:02;12.90;50.70
30288;DHT22;17103;48.316;11.558;2022-09-17T18:06:29;12.90;50.70
30288;DHT22;17103;48.316;11.558;2022-09-17T18:08:55;12.90;50.80
30288;DHT22;17103;48.316;11.558;2022-09-17T18:11:21;12.80;50.60
30288;DHT22;17103;48.316;11.558;2022-09-17T18:13:51;12.80;50.70
30288;DHT22;17103;48.316;11.558;2022-09-17T18:16:17;12.80;50.90
30288;DHT22;17103;48.316;11.558;2022-09-17T18:18:44;12.80;51.10
30288;DHT22;17103;48.316;11.558;2022-09-17T18:21:13;12.70;51.30
30288;DHT22;17103;48.316;11.558;2022-09-17T18:23:41;12.80;51.30
30288;DHT22;17103;48.316;11.558;2022-09-17T18:26:15;12.70;51.40
30288;DHT22;17103;48.316;11.558;2022-09-17T18:28:41;12.70;51.50
30288;DHT22;17103;48.316;11.558;2022-09-17T18:31:12;12.70;51.70
30288;DHT22;17103;48.316;11.558;2022-09-17T18:33:39;12.60;51.70
30288;DHT22;17103;48.316;11.558;2022-09-17T18:36:04;12.60;51.50
30288;DHT22;17103;48.316;11.558;2022-09-17T18:38:31;12.60;51.50
30288;DHT22;17103;48.316;11.558;2022-09-17T18:41:04;12.70;51.60
30288;DHT22;17103;48.316;11.558;2022-09-17T18:43:32;12.70;51.70
30288;DHT22;17103;48.316;11.558;2022-09-17T18:45:58;12.70;51.80
30288;DHT22;17103;48.316;11.558;2022-09-17T18:48:25;12.70;51.80
30288;DHT22;17103;48.316;11.558;2022-09-17T18:51:10;12.80;51.80
30288;DHT22;17103;48.316;11.558;2022-09-17T18:53:37;12.80;51.70
30288;DHT22;17103;48.316;11.558;2022-09-17T18:56:13;12.90;51.60